UTTT/TAS METAR and TAF weather

Enter ICAO airport designator
Station Type Date Time Source
UTTT METAR 2024/02/26 17:30 UTC NOAA

UTTT 261730Z 26004KT 4000 BR BKN014 01/M01 Q1025 R08R/CLRD70 NOSIG


Station Type Date Time Source
UTTT Decoded METAR 2024/02/26 17:30 UTC NOAA

Tashkent, Uzbekistan (UTTT) 41-16N 069-16E 488M
Feb 26, 2024 - 12:30 PM EST / 2024.02.26 1730 UTC
Wind: from the W (260 degrees) at 5 MPH (4 KT):0
Visibility: 2 mile(s):0
Sky conditions: mostly cloudy
Weather: mist
Temperature: 33 F (1 C)
Windchill: 28 F (-2 C):1
Dew Point: 30 F (-1 C)
Relative Humidity: 86%
Pressure (altimeter): 30.27 in. Hg (1025 hPa)
ob: UTTT 261730Z 26004KT 4000 BR BKN014 01/M01 Q1025 R08R/CLRD70 NOSIG
cycle: 17

Station Type Date Time Source
UTTT TAF 2024/02/26 18:09 UTC NOAA